createdAt,value
2019-05-13T00:00:34.220Z,14.90
2019-05-13T00:03:03.643Z,14.90
2019-05-13T00:05:33.872Z,14.80
2019-05-13T00:08:03.571Z,14.80
2019-05-13T00:10:34.765Z,14.80
2019-05-13T00:13:04.333Z,14.80
2019-05-13T00:15:34.033Z,14.70
2019-05-13T00:18:03.850Z,14.70
2019-05-13T00:20:33.735Z,14.70
2019-05-13T00:23:03.927Z,14.60
2019-05-13T00:25:34.030Z,14.50
2019-05-13T00:28:04.058Z,14.40
2019-05-13T00:30:34.163Z,14.40
2019-05-13T00:33:03.772Z,14.30
2019-05-13T00:35:33.826Z,14.20
2019-05-13T00:38:03.749Z,14.20
2019-05-13T00:40:33.833Z,14.10
2019-05-13T00:43:03.842Z,14.10
2019-05-13T00:45:33.846Z,14.10
2019-05-13T00:48:04.487Z,14.10
2019-05-13T00:50:33.655Z,14.00
2019-05-13T00:53:04.403Z,14.00
2019-05-13T00:55:34.304Z,13.90
2019-05-13T00:58:04.628Z,13.90
2019-05-13T01:00:34.093Z,13.80
2019-05-13T01:03:04.038Z,13.70
2019-05-13T01:05:33.920Z,13.70
2019-05-13T01:08:04.323Z,13.60
2019-05-13T01:10:34.657Z,13.60
2019-05-13T01:13:04.834Z,13.50
2019-05-13T01:15:34.355Z,13.50
2019-05-13T01:18:04.037Z,13.50
2019-05-13T01:20:34.495Z,13.40
2019-05-13T01:23:03.960Z,13.40
2019-05-13T01:25:33.899Z,13.40
2019-05-13T01:28:04.651Z,13.30
2019-05-13T01:30:34.572Z,13.30
2019-05-13T01:33:04.412Z,13.30
2019-05-13T01:35:34.259Z,13.30
2019-05-13T01:38:04.567Z,13.20
2019-05-13T01:40:34.783Z,13.20
2019-05-13T01:43:03.868Z,13.20
2019-05-13T01:45:33.745Z,13.20
2019-05-13T01:48:07.333Z,13.10
2019-05-13T01:50:33.821Z,13.10
2019-05-13T01:53:04.181Z,13.10
2019-05-13T01:55:34.028Z,13.10
2019-05-13T01:58:04.294Z,13.10
2019-05-13T02:00:35.429Z,13.10
2019-05-13T02:03:03.849Z,13.20
2019-05-13T02:05:34.034Z,13.20
2019-05-13T02:08:04.457Z,13.20
2019-05-13T02:10:50.851Z,13.20
2019-05-13T02:13:19.305Z,13.20
2019-05-13T02:15:47.821Z,13.20
2019-05-13T02:18:16.280Z,13.20
2019-05-13T02:20:44.791Z,13.20
2019-05-13T02:23:14.527Z,13.20
2019-05-13T02:25:43.597Z,13.20
2019-05-13T02:28:13.896Z,13.20
2019-05-13T02:30:45.449Z,13.10
2019-05-13T02:33:13.415Z,13.10
2019-05-13T02:35:43.420Z,13.00
2019-05-13T02:38:23.571Z,12.90
2019-05-13T02:40:43.165Z,12.80
2019-05-13T02:43:13.681Z,12.80
2019-05-13T02:45:43.155Z,12.70
2019-05-13T02:48:12.792Z,12.60
2019-05-13T02:50:44.086Z,12.60
2019-05-13T02:53:13.589Z,12.60
2019-05-13T02:55:43.687Z,12.50
2019-05-13T02:58:12.589Z,12.50
2019-05-13T03:00:44.159Z,12.50
2019-05-13T03:03:12.920Z,12.40
2019-05-13T03:05:42.819Z,12.40
2019-05-13T03:08:12.670Z,12.40
2019-05-13T03:10:43.390Z,12.40
2019-05-13T03:13:12.694Z,12.40
2019-05-13T03:16:02.501Z,12.40
2019-05-13T03:18:33.113Z,12.30
2019-05-13T03:21:03.081Z,12.30
2019-05-13T03:23:32.470Z,12.20
2019-05-13T03:26:02.859Z,12.10
2019-05-13T03:28:33.042Z,12.10
2019-05-13T03:31:05.473Z,12.10
2019-05-13T03:33:35.847Z,12.00
2019-05-13T03:36:06.393Z,11.90
2019-05-13T03:38:32.921Z,11.90
2019-05-13T03:41:03.234Z,11.90
2019-05-13T03:43:33.259Z,11.90
2019-05-13T03:46:03.711Z,11.90
2019-05-13T03:48:35.196Z,11.90
2019-05-13T03:51:04.172Z,11.90
2019-05-13T03:53:32.882Z,11.90
2019-05-13T03:56:02.758Z,11.80
2019-05-13T03:58:32.545Z,11.80
2019-05-13T04:01:02.771Z,11.80
2019-05-13T04:03:33.087Z,11.80
2019-05-13T04:06:03.634Z,11.90
2019-05-13T04:08:32.811Z,11.90
2019-05-13T04:11:02.900Z,11.90
2019-05-13T04:13:33.555Z,11.90
2019-05-13T04:16:04.010Z,11.90
2019-05-13T04:18:32.793Z,11.90
2019-05-13T04:21:02.801Z,11.90
2019-05-13T04:23:32.431Z,11.90
2019-05-13T04:26:02.932Z,11.90
2019-05-13T04:28:33.081Z,11.90
2019-05-13T04:31:03.473Z,11.90
2019-05-13T04:33:33.396Z,11.90
2019-05-13T04:36:02.791Z,11.80
2019-05-13T04:38:33.142Z,11.80
2019-05-13T04:41:03.469Z,11.70
2019-05-13T04:43:34.723Z,11.70
2019-05-13T04:46:02.835Z,11.80
2019-05-13T04:48:33.859Z,11.80
2019-05-13T04:51:02.987Z,11.80
2019-05-13T04:53:33.350Z,11.80
2019-05-13T04:56:03.494Z,11.90
2019-05-13T04:58:32.457Z,11.90
2019-05-13T05:01:16.371Z,12.00
2019-05-13T05:04:22.377Z,12.00
2019-05-13T05:07:03.151Z,12.10
2019-05-13T05:10:16.759Z,12.20
2019-05-13T05:12:56.761Z,12.20
2019-05-13T05:15:43.153Z,12.30
2019-05-13T05:18:22.208Z,12.40
2019-05-13T05:21:18.958Z,12.50
2019-05-13T05:24:23.548Z,12.50
2019-05-13T05:27:14.738Z,12.60
2019-05-13T05:29:46.264Z,12.70
2019-05-13T05:32:35.871Z,12.70
2019-05-13T05:35:34.067Z,12.80
2019-05-13T05:38:26.146Z,12.90
2019-05-13T05:40:57.078Z,13.00
2019-05-13T05:43:27.627Z,13.20
2019-05-13T05:45:56.192Z,13.30
2019-05-13T05:48:25.553Z,13.30
2019-05-13T05:50:55.933Z,13.50
2019-05-13T05:53:26.186Z,13.50
2019-05-13T05:55:56.735Z,13.60
2019-05-13T05:58:26.713Z,13.60
2019-05-13T06:00:56.611Z,13.70
2019-05-13T06:03:26.960Z,13.70
2019-05-13T06:05:56.179Z,13.70
2019-05-13T06:08:24.615Z,13.60
2019-05-13T06:10:53.951Z,13.70
2019-05-13T06:13:22.659Z,13.80
2019-05-13T06:15:51.471Z,13.80
2019-05-13T06:18:22.202Z,13.90
2019-05-13T06:20:51.182Z,13.90
2019-05-13T06:23:22.189Z,13.90
2019-05-13T06:25:52.397Z,13.90
2019-05-13T06:28:21.714Z,14.00
2019-05-13T06:30:52.010Z,14.00
2019-05-13T06:33:21.241Z,14.10
2019-05-13T06:35:51.931Z,14.10
2019-05-13T06:38:22.558Z,14.20
2019-05-13T06:41:02.497Z,14.20
2019-05-13T06:43:21.143Z,14.30
2019-05-13T06:45:51.360Z,14.40
2019-05-13T06:48:19.956Z,14.40
2019-05-13T06:50:48.406Z,14.50
2019-05-13T06:53:16.943Z,14.50
2019-05-13T06:55:45.384Z,14.60
2019-05-13T06:58:13.848Z,14.70
2019-05-13T07:00:42.960Z,14.60
2019-05-13T07:03:12.688Z,14.70
2019-05-13T07:05:42.323Z,14.70
2019-05-13T07:08:12.010Z,14.70
2019-05-13T07:10:43.714Z,14.80
2019-05-13T07:13:12.170Z,14.90
2019-05-13T07:15:41.704Z,15.00
2019-05-13T07:18:11.707Z,15.00
2019-05-13T07:20:42.689Z,15.10
2019-05-13T07:23:12.138Z,15.20
2019-05-13T07:25:42.039Z,15.30
2019-05-13T07:28:12.730Z,15.30
2019-05-13T07:30:43.468Z,15.20
2019-05-13T07:33:12.970Z,15.30
2019-05-13T07:35:44.315Z,15.30
2019-05-13T07:38:12.315Z,15.30
2019-05-13T07:40:41.836Z,15.40
2019-05-13T07:43:12.267Z,15.50
2019-05-13T07:45:42.268Z,15.50
2019-05-13T07:48:20.556Z,15.50
2019-05-13T07:50:55.597Z,15.60
2019-05-13T07:53:16.421Z,15.70
2019-05-13T07:55:42.195Z,15.80
2019-05-13T07:58:11.505Z,15.90
2019-05-13T08:00:41.924Z,15.90
2019-05-13T08:03:12.287Z,16.00
2019-05-13T08:05:41.840Z,16.10
2019-05-13T08:08:11.690Z,16.20
2019-05-13T08:10:41.734Z,16.20
2019-05-13T08:13:11.938Z,16.30
2019-05-13T08:15:42.149Z,16.40
2019-05-13T08:18:12.257Z,16.40
2019-05-13T08:20:41.997Z,16.50
2019-05-13T08:23:11.762Z,16.60
2019-05-13T08:25:42.419Z,16.60
2019-05-13T08:28:12.265Z,16.60
2019-05-13T08:30:42.658Z,16.60
2019-05-13T08:33:12.540Z,16.70
2019-05-13T08:35:41.811Z,16.70
2019-05-13T08:38:12.059Z,16.80
2019-05-13T08:40:42.428Z,16.90
2019-05-13T08:43:12.185Z,17.00
2019-05-13T08:45:42.311Z,17.10
2019-05-13T08:48:12.684Z,17.10
2019-05-13T08:50:42.012Z,17.20
2019-05-13T08:53:12.162Z,17.20
2019-05-13T08:55:42.628Z,17.20
2019-05-13T08:58:12.434Z,17.20
2019-05-13T09:00:53.041Z,17.30
2019-05-13T09:03:22.746Z,17.30
2019-05-13T09:05:52.408Z,17.30
2019-05-13T09:08:23.290Z,17.30
2019-05-13T09:10:53.198Z,17.40
2019-05-13T09:13:22.476Z,17.40
2019-05-13T09:15:51.820Z,17.50
2019-05-13T09:18:22.751Z,17.50
2019-05-13T09:20:52.094Z,17.50
2019-05-13T09:23:22.233Z,17.40
2019-05-13T09:25:52.124Z,17.30
2019-05-13T09:28:21.988Z,17.30
2019-05-13T09:30:53.215Z,17.20
2019-05-13T09:33:21.969Z,17.30
2019-05-13T09:38:22.108Z,17.30
2019-05-13T09:40:53.100Z,17.40
2019-05-13T09:43:22.333Z,17.50
2019-05-13T09:45:52.371Z,17.60
2019-05-13T09:48:22.408Z,17.70
2019-05-13T09:50:51.763Z,17.80
2019-05-13T09:53:22.246Z,17.90
2019-05-13T09:55:52.200Z,18.10
2019-05-13T09:58:22.376Z,18.20
2019-05-13T10:00:52.469Z,18.30
2019-05-13T10:03:26.690Z,18.40
2019-05-13T10:05:51.899Z,18.50
2019-05-13T10:08:22.049Z,18.60
2019-05-13T10:10:52.824Z,18.70
2019-05-13T10:13:23.099Z,18.80
2019-05-13T10:15:51.311Z,18.80
2019-05-13T10:18:21.939Z,18.80
2019-05-13T10:21:00.828Z,18.80
2019-05-13T10:23:32.985Z,18.90
2019-05-13T10:26:03.842Z,18.90
2019-05-13T10:28:33.069Z,18.90
2019-05-13T10:31:01.694Z,18.90
2019-05-13T10:33:31.985Z,18.80
2019-05-13T10:36:03.215Z,18.80
2019-05-13T10:38:32.414Z,18.70
2019-05-13T10:41:03.234Z,18.80
2019-05-13T10:43:31.725Z,18.70
2019-05-13T10:46:02.575Z,18.70
2019-05-13T10:48:31.503Z,18.70
2019-05-13T10:51:01.994Z,18.70
2019-05-13T10:53:32.136Z,18.60
2019-05-13T10:56:03.119Z,18.60
2019-05-13T10:58:30.458Z,18.70
2019-05-13T11:01:02.176Z,18.70
2019-05-13T11:03:32.275Z,18.60
2019-05-13T11:05:59.686Z,18.60
2019-05-13T11:08:28.201Z,18.70
2019-05-13T11:10:56.672Z,18.80
2019-05-13T11:13:25.250Z,18.80
2019-05-13T11:15:58.052Z,18.80
2019-05-13T11:18:24.562Z,19.00
2019-05-13T11:20:53.133Z,19.00
2019-05-13T11:23:23.208Z,19.10
2019-05-13T11:25:52.433Z,19.20
2019-05-13T11:28:21.089Z,19.30
2019-05-13T11:30:51.970Z,19.40
2019-05-13T11:33:22.057Z,19.40
2019-05-13T11:35:52.285Z,19.40
2019-05-13T11:38:22.166Z,19.50
2019-05-13T11:40:52.507Z,19.50
2019-05-13T11:43:21.516Z,19.60
2019-05-13T11:45:50.941Z,19.40
2019-05-13T11:48:23.132Z,19.40
2019-05-13T11:50:53.755Z,19.40
2019-05-13T11:53:33.231Z,19.50
2019-05-13T11:55:52.258Z,19.50
2019-05-13T11:58:20.919Z,19.50
2019-05-13T12:00:53.226Z,19.60
2019-05-13T12:03:22.983Z,19.60
2019-05-13T12:05:53.711Z,19.60
2019-05-13T12:08:23.083Z,19.70
2019-05-13T12:10:52.095Z,19.70
2019-05-13T12:13:23.238Z,19.80
2019-05-13T12:15:53.985Z,19.90
2019-05-13T12:18:23.510Z,19.90
2019-05-13T12:20:54.098Z,20.00
2019-05-13T12:23:21.470Z,20.10
2019-05-13T12:25:52.619Z,20.10
2019-05-13T12:28:20.272Z,20.10
2019-05-13T12:30:52.739Z,20.10
2019-05-13T12:33:19.435Z,20.20
2019-05-13T12:35:47.882Z,20.20
2019-05-13T12:38:16.449Z,20.20
2019-05-13T12:40:44.994Z,20.30
2019-05-13T12:43:13.857Z,20.30
2019-05-13T12:48:14.118Z,20.40
2019-05-13T12:50:43.398Z,20.50
2019-05-13T12:53:12.898Z,20.50
2019-05-13T12:55:41.472Z,20.50
2019-05-13T12:58:12.135Z,20.40
2019-05-13T13:00:43.406Z,20.30
2019-05-13T13:03:13.051Z,20.40
2019-05-13T13:05:43.197Z,20.40
2019-05-13T13:08:19.195Z,20.40
2019-05-13T13:10:42.315Z,20.40
2019-05-13T13:13:11.809Z,20.40
2019-05-13T13:15:46.719Z,20.40
2019-05-13T13:18:14.482Z,20.50
2019-05-13T13:20:42.216Z,20.50
2019-05-13T13:23:12.854Z,20.60
2019-05-13T13:25:44.149Z,20.70
2019-05-13T13:28:15.295Z,20.80
2019-05-13T13:30:43.868Z,20.90
2019-05-13T13:33:14.902Z,21.00
2019-05-13T13:35:45.142Z,21.10
2019-05-13T13:38:12.146Z,21.10
2019-05-13T13:40:40.785Z,21.20
2019-05-13T13:43:12.316Z,21.30
2019-05-13T13:46:06.594Z,21.40
2019-05-13T13:48:13.388Z,21.40
2019-05-13T13:50:44.622Z,21.50
2019-05-13T13:53:14.469Z,21.50
2019-05-13T13:55:44.606Z,21.50
2019-05-13T13:58:14.495Z,21.50
2019-05-13T14:00:55.952Z,21.60
2019-05-13T14:03:13.254Z,21.70
2019-05-13T14:05:42.906Z,21.70
2019-05-13T14:06:25.163Z,17.20
2019-05-13T14:06:33.328Z,20.40
2019-05-13T14:08:12.558Z,22.00
2019-05-13T14:10:42.038Z,21.90
2019-05-13T14:13:12.516Z,22.10
2019-05-13T14:15:41.789Z,22.20
2019-05-13T14:18:11.440Z,22.30
2019-05-13T14:20:42.747Z,22.40
2019-05-13T14:23:12.592Z,22.50
2019-05-13T14:25:42.091Z,22.70
2019-05-13T14:28:10.713Z,22.90
2019-05-13T14:30:41.909Z,23.10
2019-05-13T14:33:11.511Z,23.20
2019-05-13T14:35:41.590Z,23.40
2019-05-13T14:38:11.896Z,23.60
2019-05-13T14:40:40.495Z,23.70
2019-05-13T14:43:11.988Z,23.80
2019-05-13T14:45:39.371Z,23.90
2019-05-13T14:48:07.913Z,24.00
2019-05-13T14:50:36.355Z,24.10
2019-05-13T14:53:04.887Z,24.20
2019-05-13T14:55:33.333Z,24.20
2019-05-13T14:58:01.952Z,24.20
2019-05-13T15:00:32.750Z,24.20
2019-05-13T15:03:03.107Z,24.20
2019-05-13T15:05:31.501Z,24.30
2019-05-13T15:08:00.079Z,24.40
2019-05-13T15:10:30.849Z,24.30
2019-05-13T15:12:58.753Z,24.30
2019-05-13T15:15:27.236Z,24.40
2019-05-13T15:17:55.697Z,24.40
2019-05-13T15:20:24.245Z,24.40
2019-05-13T15:22:52.761Z,24.50
2019-05-13T15:25:22.058Z,24.40
2019-05-13T15:27:52.784Z,24.50
2019-05-13T15:30:22.006Z,24.50
2019-05-13T15:32:52.544Z,24.60
2019-05-13T15:35:20.977Z,24.90
2019-05-13T15:37:52.129Z,25.60
2019-05-13T15:40:20.030Z,26.60
2019-05-13T15:42:51.783Z,27.60
2019-05-13T15:45:21.323Z,28.80
2019-05-13T15:47:51.599Z,29.80
2019-05-13T15:50:21.453Z,30.90
2019-05-13T15:52:50.129Z,32.00
2019-05-13T15:55:18.642Z,33.20
2019-05-13T15:57:48.867Z,34.20
2019-05-13T16:00:17.723Z,35.00
2019-05-13T16:02:46.339Z,35.80
2019-05-13T16:05:14.932Z,36.60
2019-05-13T16:07:43.443Z,37.30
2019-05-13T16:10:12.053Z,37.90
2019-05-13T16:12:40.669Z,38.20
2019-05-13T16:15:15.259Z,38.50
2019-05-13T16:17:44.493Z,38.70
2019-05-13T16:20:10.771Z,38.90
2019-05-13T16:22:41.388Z,39.10
2019-05-13T16:25:09.454Z,39.40
2019-05-13T16:27:37.988Z,39.60
2019-05-13T16:30:07.068Z,39.70
2019-05-13T16:32:35.697Z,39.70
2019-05-13T16:35:06.107Z,39.80
2019-05-13T16:37:34.665Z,39.80
2019-05-13T16:40:03.944Z,39.70
2019-05-13T16:42:32.409Z,39.50
2019-05-13T16:45:00.908Z,39.40
2019-05-13T16:47:31.754Z,39.40
2019-05-13T16:50:02.483Z,39.20
2019-05-13T16:52:31.227Z,39.10
2019-05-13T16:55:02.613Z,38.90
2019-05-13T16:57:31.661Z,38.80
2019-05-13T17:00:02.259Z,38.40
2019-05-13T17:02:30.446Z,37.70
2019-05-13T17:04:58.879Z,36.70
2019-05-13T17:07:28.032Z,35.50
2019-05-13T17:09:56.468Z,34.40
2019-05-13T17:12:24.935Z,33.40
2019-05-13T17:14:53.379Z,32.60
2019-05-13T17:17:21.869Z,31.70
2019-05-13T17:19:53.506Z,30.90
2019-05-13T17:22:20.620Z,30.10
2019-05-13T17:24:51.704Z,29.30
2019-05-13T17:27:21.270Z,28.50
2019-05-13T17:29:51.469Z,27.80
2019-05-13T17:32:22.073Z,27.00
2019-05-13T17:34:51.538Z,26.40
2019-05-13T17:37:22.132Z,25.80
2019-05-13T17:39:50.373Z,25.30
2019-05-13T17:42:21.296Z,24.90
2019-05-13T17:44:49.006Z,24.50
2019-05-13T17:47:17.546Z,24.00
2019-05-13T17:49:46.022Z,23.70
2019-05-13T17:52:14.548Z,23.40
2019-05-13T17:54:43.024Z,23.10
2019-05-13T17:57:12.403Z,22.90
2019-05-13T17:59:41.787Z,22.60
2019-05-13T18:02:11.848Z,22.40
2019-05-13T18:04:41.480Z,22.20
2019-05-13T18:07:12.154Z,22.00
2019-05-13T18:09:42.538Z,21.80
2019-05-13T18:12:11.559Z,21.60
2019-05-13T18:14:41.166Z,21.50
2019-05-13T18:17:12.374Z,21.20
2019-05-13T18:19:41.996Z,21.00
2019-05-13T18:22:11.467Z,20.90
2019-05-13T18:24:40.153Z,20.70
2019-05-13T18:27:08.692Z,20.50
2019-05-13T18:29:37.140Z,20.30
2019-05-13T18:32:05.618Z,20.20
2019-05-13T18:34:34.066Z,20.10
2019-05-13T18:37:02.751Z,20.00
2019-05-13T18:39:32.244Z,19.80
2019-05-13T18:42:01.101Z,19.70
2019-05-13T18:44:31.713Z,19.60
2019-05-13T18:47:01.529Z,19.60
2019-05-13T18:49:31.800Z,19.50
2019-05-13T18:52:00.581Z,19.40
2019-05-13T18:54:31.373Z,19.30
2019-05-13T18:57:01.425Z,19.20
2019-05-13T18:59:29.411Z,19.10
2019-05-13T19:01:57.970Z,19.00
2019-05-13T19:04:26.501Z,18.90
2019-05-13T19:06:54.937Z,18.90
2019-05-13T19:09:23.472Z,18.80
2019-05-13T19:11:51.932Z,18.80
2019-05-13T19:14:21.273Z,18.70
2019-05-13T19:16:49.925Z,18.70
2019-05-13T19:19:20.693Z,18.70
2019-05-13T19:21:50.995Z,18.60
2019-05-13T19:24:18.787Z,18.60
2019-05-13T19:26:47.707Z,18.50
2019-05-13T19:29:16.175Z,18.50
2019-05-13T19:31:44.741Z,18.40
2019-05-13T19:34:13.229Z,18.40
2019-05-13T19:36:41.659Z,18.40
2019-05-13T19:39:11.353Z,18.30
2019-05-13T19:41:42.219Z,18.30
2019-05-13T19:44:10.373Z,18.20
2019-05-13T19:46:38.852Z,18.10
2019-05-13T19:49:07.353Z,18.00
2019-05-13T19:51:35.878Z,17.90
2019-05-13T19:54:04.479Z,17.80
2019-05-13T19:56:32.953Z,17.80
2019-05-13T19:59:01.701Z,17.70
2019-05-13T20:01:32.180Z,17.70
2019-05-13T20:04:02.363Z,17.60
2019-05-13T20:06:32.018Z,17.60
2019-05-13T20:09:01.504Z,17.50
2019-05-13T20:11:30.142Z,17.40
2019-05-13T20:14:01.156Z,17.30
2019-05-13T20:16:28.907Z,17.30
2019-05-13T20:18:57.376Z,17.20
2019-05-13T20:21:25.957Z,17.10
2019-05-13T20:23:54.545Z,17.00
2019-05-13T20:26:23.019Z,17.00
2019-05-13T20:28:51.541Z,16.90
2019-05-13T20:31:21.720Z,16.80
2019-05-13T20:33:51.615Z,16.80
2019-05-13T20:36:22.216Z,16.70
2019-05-13T20:38:51.588Z,16.60
2019-05-13T20:41:22.211Z,16.60
2019-05-13T20:43:52.086Z,16.50
2019-05-13T20:46:22.973Z,16.50
2019-05-13T20:48:51.921Z,16.40
2019-05-13T20:51:21.954Z,16.40
2019-05-13T20:53:51.799Z,16.30
2019-05-13T20:56:21.436Z,16.20
2019-05-13T20:58:51.558Z,16.20
2019-05-13T21:01:20.270Z,16.10
2019-05-13T21:03:51.292Z,16.00
2019-05-13T21:06:18.976Z,16.00
2019-05-13T21:08:47.552Z,15.90
2019-05-13T21:11:16.003Z,15.90
2019-05-13T21:13:44.437Z,15.80
2019-05-13T21:16:12.905Z,15.70
2019-05-13T21:18:42.085Z,15.70
2019-05-13T21:21:11.712Z,15.60
2019-05-13T21:23:41.694Z,15.60
2019-05-13T21:26:13.139Z,15.50
2019-05-13T21:28:41.849Z,15.40
2019-05-13T21:31:11.394Z,15.30
2019-05-13T21:33:40.010Z,15.30
2019-05-13T21:36:08.458Z,15.10
2019-05-13T21:38:36.923Z,15.10
2019-05-13T21:41:05.351Z,14.90
2019-05-13T21:43:33.827Z,14.90
2019-05-13T21:46:02.406Z,14.80
2019-05-13T21:48:32.453Z,14.80
2019-05-13T21:51:01.169Z,14.70
2019-05-13T21:53:32.339Z,14.60
2019-05-13T21:56:02.094Z,14.60
2019-05-13T21:58:31.258Z,14.50
2019-05-13T22:01:01.546Z,14.50
2019-05-13T22:03:33.188Z,14.40
2019-05-13T22:06:01.994Z,14.40
2019-05-13T22:08:32.093Z,14.40
2019-05-13T22:11:01.785Z,14.30
2019-05-13T22:13:31.584Z,14.20
2019-05-13T22:16:01.712Z,14.20
2019-05-13T22:18:31.443Z,14.20
2019-05-13T22:21:01.630Z,14.10
2019-05-13T22:23:32.087Z,14.10
2019-05-13T22:26:01.703Z,14.00
2019-05-13T22:28:31.302Z,14.00
2019-05-13T22:31:01.375Z,14.00
2019-05-13T22:33:32.299Z,13.90
2019-05-13T22:36:01.605Z,13.90
2019-05-13T22:38:32.411Z,13.90
2019-05-13T22:41:01.254Z,13.80
2019-05-13T22:43:32.053Z,13.70
2019-05-13T22:46:00.126Z,13.70
2019-05-13T22:48:28.635Z,13.60
2019-05-13T22:50:57.071Z,13.60
2019-05-13T22:53:25.566Z,13.60
2019-05-13T22:55:54.014Z,13.60
2019-05-13T22:58:22.664Z,13.50
2019-05-13T23:00:51.753Z,13.20
2019-05-13T23:03:20.350Z,13.40
2019-05-13T23:05:48.790Z,13.40
2019-05-13T23:08:17.280Z,13.30
2019-05-13T23:10:45.721Z,13.30
2019-05-13T23:13:14.183Z,13.30
2019-05-13T23:15:42.672Z,13.30
2019-05-13T23:18:11.747Z,13.20
2019-05-13T23:20:41.056Z,13.20
2019-05-13T23:23:11.641Z,13.10
2019-05-13T23:25:40.946Z,13.10
2019-05-13T23:28:11.237Z,13.10
2019-05-13T23:30:41.611Z,13.00
2019-05-13T23:33:11.674Z,13.00
2019-05-13T23:35:41.876Z,13.00
2019-05-13T23:38:10.671Z,12.90
2019-05-13T23:40:39.182Z,12.90
2019-05-13T23:43:07.650Z,12.90
2019-05-13T23:45:36.096Z,12.90
2019-05-13T23:48:04.696Z,12.80
2019-05-13T23:50:33.140Z,12.80
2019-05-13T23:53:01.656Z,12.70
2019-05-13T23:55:32.139Z,12.70
2019-05-13T23:58:01.702Z,12.70
